sensor_id;sensor_type;location;lat;lon;timestamp;P1;durP1;ratioP1;P2;durP2;ratioP2
3407;SDS011;1717;50.240;8.406;2022-11-20T00:01:05;31.77;;;20.10;;
3407;SDS011;1717;50.240;8.406;2022-11-20T00:03:33;32.20;;;18.63;;
3407;SDS011;1717;50.240;8.406;2022-11-20T00:06:01;33.87;;;20.10;;
3407;SDS011;1717;50.240;8.406;2022-11-20T00:08:29;31.80;;;18.60;;
3407;SDS011;1717;50.240;8.406;2022-11-20T00:10:56;29.20;;;18.30;;
3407;SDS011;1717;50.240;8.406;2022-11-20T00:13:23;30.63;;;18.30;;
3407;SDS011;1717;50.240;8.406;2022-11-20T00:15:56;33.93;;;19.20;;
3407;SDS011;1717;50.240;8.406;2022-11-20T00:18:24;32.93;;;18.83;;
3407;SDS011;1717;50.240;8.406;2022-11-20T00:20:51;27.97;;;17.20;;
3407;SDS011;1717;50.240;8.406;2022-11-20T00:23:19;30.60;;;18.97;;
3407;SDS011;1717;50.240;8.406;2022-11-20T00:25:46;34.10;;;18.10;;
3407;SDS011;1717;50.240;8.406;2022-11-20T00:28:13;33.63;;;18.83;;
3407;SDS011;1717;50.240;8.406;2022-11-20T00:30:40;31.50;;;18.20;;
3407;SDS011;1717;50.240;8.406;2022-11-20T00:33:06;29.90;;;17.47;;
3407;SDS011;1717;50.240;8.406;2022-11-20T00:35:33;38.70;;;19.17;;
3407;SDS011;1717;50.240;8.406;2022-11-20T00:38:00;33.33;;;18.73;;
3407;SDS011;1717;50.240;8.406;2022-11-20T00:40:28;29.90;;;17.53;;
3407;SDS011;1717;50.240;8.406;2022-11-20T00:42:55;32.00;;;17.43;;
3407;SDS011;1717;50.240;8.406;2022-11-20T00:45:22;33.33;;;18.20;;
3407;SDS011;1717;50.240;8.406;2022-11-20T00:47:49;34.17;;;19.63;;
3407;SDS011;1717;50.240;8.406;2022-11-20T00:50:16;33.17;;;17.87;;
3407;SDS011;1717;50.240;8.406;2022-11-20T00:52:43;33.10;;;18.97;;
3407;SDS011;1717;50.240;8.406;2022-11-20T00:55:09;33.43;;;18.57;;
3407;SDS011;1717;50.240;8.406;2022-11-20T00:57:38;35.63;;;20.43;;
3407;SDS011;1717;50.240;8.406;2022-11-20T01:00:05;32.37;;;19.97;;
3407;SDS011;1717;50.240;8.406;2022-11-20T01:02:33;28.50;;;16.97;;
3407;SDS011;1717;50.240;8.406;2022-11-20T01:04:59;33.93;;;18.40;;
3407;SDS011;1717;50.240;8.406;2022-11-20T01:07:27;31.37;;;17.27;;
3407;SDS011;1717;50.240;8.406;2022-11-20T01:09:54;33.73;;;18.73;;
3407;SDS011;1717;50.240;8.406;2022-11-20T01:12:20;33.43;;;19.90;;
3407;SDS011;1717;50.240;8.406;2022-11-20T01:14:49;29.90;;;17.10;;
3407;SDS011;1717;50.240;8.406;2022-11-20T01:17:15;30.43;;;18.57;;
3407;SDS011;1717;50.240;8.406;2022-11-20T01:19:42;30.43;;;16.77;;
3407;SDS011;1717;50.240;8.406;2022-11-20T01:22:09;32.47;;;18.10;;
3407;SDS011;1717;50.240;8.406;2022-11-20T01:24:36;29.47;;;17.20;;
3407;SDS011;1717;50.240;8.406;2022-11-20T01:27:03;33.53;;;19.37;;
3407;SDS011;1717;50.240;8.406;2022-11-20T01:29:30;28.40;;;18.13;;
3407;SDS011;1717;50.240;8.406;2022-11-20T01:31:58;28.33;;;17.27;;
3407;SDS011;1717;50.240;8.406;2022-11-20T01:34:25;29.30;;;16.50;;
3407;SDS011;1717;50.240;8.406;2022-11-20T01:36:52;27.97;;;17.10;;
3407;SDS011;1717;50.240;8.406;2022-11-20T01:39:20;26.70;;;16.80;;
3407;SDS011;1717;50.240;8.406;2022-11-20T01:41:48;25.93;;;17.23;;
3407;SDS011;1717;50.240;8.406;2022-11-20T01:44:45;24.47;;;16.27;;
3407;SDS011;1717;50.240;8.406;2022-11-20T01:47:21;28.07;;;16.87;;
3407;SDS011;1717;50.240;8.406;2022-11-20T01:49:54;24.90;;;16.07;;
3407;SDS011;1717;50.240;8.406;2022-11-20T01:52:26;26.53;;;16.70;;
3407;SDS011;1717;50.240;8.406;2022-11-20T01:54:57;24.57;;;15.90;;
3407;SDS011;1717;50.240;8.406;2022-11-20T01:57:27;24.03;;;16.10;;
3407;SDS011;1717;50.240;8.406;2022-11-20T01:59:59;22.97;;;14.60;;
3407;SDS011;1717;50.240;8.406;2022-11-20T02:02:30;27.83;;;17.17;;
3407;SDS011;1717;50.240;8.406;2022-11-20T02:05:00;26.40;;;16.83;;
3407;SDS011;1717;50.240;8.406;2022-11-20T02:07:34;24.90;;;15.60;;
3407;SDS011;1717;50.240;8.406;2022-11-20T02:10:02;26.87;;;15.97;;
3407;SDS011;1717;50.240;8.406;2022-11-20T02:12:29;25.70;;;15.63;;
3407;SDS011;1717;50.240;8.406;2022-11-20T02:15:14;24.57;;;14.87;;
3407;SDS011;1717;50.240;8.406;2022-11-20T02:17:42;21.70;;;14.87;;
3407;SDS011;1717;50.240;8.406;2022-11-20T02:20:09;22.90;;;15.17;;
3407;SDS011;1717;50.240;8.406;2022-11-20T02:22:38;21.80;;;14.57;;
3407;SDS011;1717;50.240;8.406;2022-11-20T02:25:14;22.33;;;14.13;;
3407;SDS011;1717;50.240;8.406;2022-11-20T02:27:42;20.60;;;13.23;;
3407;SDS011;1717;50.240;8.406;2022-11-20T02:30:09;22.27;;;14.20;;
3407;SDS011;1717;50.240;8.406;2022-11-20T02:32:37;26.03;;;15.63;;
3407;SDS011;1717;50.240;8.406;2022-11-20T02:35:06;19.50;;;13.23;;
3407;SDS011;1717;50.240;8.406;2022-11-20T02:37:34;27.87;;;16.67;;
3407;SDS011;1717;50.240;8.406;2022-11-20T02:40:05;24.77;;;14.20;;
3407;SDS011;1717;50.240;8.406;2022-11-20T02:42:34;22.37;;;15.60;;
3407;SDS011;1717;50.240;8.406;2022-11-20T02:45:01;23.13;;;14.43;;
3407;SDS011;1717;50.240;8.406;2022-11-20T02:47:28;24.93;;;14.60;;
3407;SDS011;1717;50.240;8.406;2022-11-20T02:49:55;28.27;;;15.87;;
3407;SDS011;1717;50.240;8.406;2022-11-20T02:52:22;21.70;;;13.47;;
3407;SDS011;1717;50.240;8.406;2022-11-20T02:54:49;22.90;;;15.00;;
3407;SDS011;1717;50.240;8.406;2022-11-20T02:57:16;24.00;;;14.70;;
3407;SDS011;1717;50.240;8.406;2022-11-20T02:59:44;23.67;;;15.23;;
3407;SDS011;1717;50.240;8.406;2022-11-20T03:02:11;24.47;;;14.53;;
3407;SDS011;1717;50.240;8.406;2022-11-20T03:04:38;22.13;;;14.60;;
3407;SDS011;1717;50.240;8.406;2022-11-20T03:07:05;24.50;;;14.33;;
3407;SDS011;1717;50.240;8.406;2022-11-20T03:09:32;26.80;;;18.40;;
3407;SDS011;1717;50.240;8.406;2022-11-20T03:11:58;21.53;;;14.33;;
3407;SDS011;1717;50.240;8.406;2022-11-20T03:14:25;24.90;;;15.73;;
3407;SDS011;1717;50.240;8.406;2022-11-20T03:16:54;23.57;;;15.37;;
3407;SDS011;1717;50.240;8.406;2022-11-20T03:19:22;25.60;;;17.00;;
3407;SDS011;1717;50.240;8.406;2022-11-20T03:21:49;27.43;;;16.70;;
3407;SDS011;1717;50.240;8.406;2022-11-20T03:24:16;25.93;;;15.07;;
3407;SDS011;1717;50.240;8.406;2022-11-20T03:26:43;27.00;;;14.90;;
3407;SDS011;1717;50.240;8.406;2022-11-20T03:29:09;24.10;;;14.60;;
3407;SDS011;1717;50.240;8.406;2022-11-20T03:31:37;26.40;;;15.67;;
3407;SDS011;1717;50.240;8.406;2022-11-20T03:34:07;23.17;;;15.13;;
3407;SDS011;1717;50.240;8.406;2022-11-20T03:36:35;24.73;;;15.77;;
3407;SDS011;1717;50.240;8.406;2022-11-20T03:39:04;27.90;;;17.23;;
3407;SDS011;1717;50.240;8.406;2022-11-20T03:41:31;33.10;;;16.53;;
3407;SDS011;1717;50.240;8.406;2022-11-20T03:44:03;30.67;;;16.83;;
3407;SDS011;1717;50.240;8.406;2022-11-20T03:46:31;27.60;;;16.47;;
3407;SDS011;1717;50.240;8.406;2022-11-20T03:48:58;25.70;;;17.10;;
3407;SDS011;1717;50.240;8.406;2022-11-20T03:51:27;26.73;;;16.90;;
3407;SDS011;1717;50.240;8.406;2022-11-20T03:53:55;26.70;;;17.00;;
3407;SDS011;1717;50.240;8.406;2022-11-20T03:56:24;27.80;;;16.07;;
3407;SDS011;1717;50.240;8.406;2022-11-20T03:58:52;24.80;;;15.33;;
3407;SDS011;1717;50.240;8.406;2022-11-20T04:01:19;26.40;;;16.93;;
3407;SDS011;1717;50.240;8.406;2022-11-20T04:03:47;27.47;;;17.00;;
3407;SDS011;1717;50.240;8.406;2022-11-20T04:06:19;23.93;;;15.00;;
3407;SDS011;1717;50.240;8.406;2022-11-20T04:08:48;29.53;;;16.40;;
3407;SDS011;1717;50.240;8.406;2022-11-20T04:11:16;27.17;;;15.90;;
3407;SDS011;1717;50.240;8.406;2022-11-20T04:13:45;22.43;;;14.47;;
3407;SDS011;1717;50.240;8.406;2022-11-20T04:16:13;29.30;;;17.10;;
3407;SDS011;1717;50.240;8.406;2022-11-20T04:18:41;26.47;;;16.33;;
3407;SDS011;1717;50.240;8.406;2022-11-20T04:21:08;25.13;;;15.73;;
3407;SDS011;1717;50.240;8.406;2022-11-20T04:23:36;28.33;;;16.80;;
3407;SDS011;1717;50.240;8.406;2022-11-20T04:26:05;25.90;;;15.80;;
3407;SDS011;1717;50.240;8.406;2022-11-20T04:28:33;24.87;;;15.27;;
3407;SDS011;1717;50.240;8.406;2022-11-20T04:31:04;29.80;;;17.60;;
3407;SDS011;1717;50.240;8.406;2022-11-20T04:33:32;26.00;;;16.10;;
3407;SDS011;1717;50.240;8.406;2022-11-20T04:36:00;31.03;;;17.07;;
3407;SDS011;1717;50.240;8.406;2022-11-20T04:38:28;29.83;;;16.80;;
3407;SDS011;1717;50.240;8.406;2022-11-20T04:40:56;26.50;;;15.83;;
3407;SDS011;1717;50.240;8.406;2022-11-20T04:43:25;25.37;;;15.87;;
3407;SDS011;1717;50.240;8.406;2022-11-20T04:45:53;29.20;;;16.00;;
3407;SDS011;1717;50.240;8.406;2022-11-20T04:48:20;23.67;;;15.17;;
3407;SDS011;1717;50.240;8.406;2022-11-20T04:50:48;28.03;;;15.90;;
3407;SDS011;1717;50.240;8.406;2022-11-20T04:55:42;27.27;;;15.80;;
3407;SDS011;1717;50.240;8.406;2022-11-20T04:58:09;24.77;;;15.70;;
3407;SDS011;1717;50.240;8.406;2022-11-20T05:00:37;27.03;;;15.80;;
3407;SDS011;1717;50.240;8.406;2022-11-20T05:03:04;25.23;;;16.80;;
3407;SDS011;1717;50.240;8.406;2022-11-20T05:05:32;25.73;;;16.23;;
3407;SDS011;1717;50.240;8.406;2022-11-20T05:07:59;28.07;;;16.50;;
3407;SDS011;1717;50.240;8.406;2022-11-20T05:10:27;30.57;;;17.50;;
3407;SDS011;1717;50.240;8.406;2022-11-20T05:12:54;28.10;;;17.13;;
3407;SDS011;1717;50.240;8.406;2022-11-20T05:15:21;30.10;;;18.03;;
3407;SDS011;1717;50.240;8.406;2022-11-20T05:17:49;24.63;;;15.63;;
3407;SDS011;1717;50.240;8.406;2022-11-20T05:20:16;27.77;;;17.00;;
3407;SDS011;1717;50.240;8.406;2022-11-20T05:22:44;25.70;;;15.93;;
3407;SDS011;1717;50.240;8.406;2022-11-20T05:25:11;22.83;;;14.83;;
3407;SDS011;1717;50.240;8.406;2022-11-20T05:27:38;23.30;;;15.70;;
3407;SDS011;1717;50.240;8.406;2022-11-20T05:30:05;22.70;;;14.00;;
3407;SDS011;1717;50.240;8.406;2022-11-20T05:32:33;23.93;;;14.40;;
3407;SDS011;1717;50.240;8.406;2022-11-20T05:35:01;23.77;;;15.90;;
3407;SDS011;1717;50.240;8.406;2022-11-20T05:37:28;22.33;;;14.60;;
3407;SDS011;1717;50.240;8.406;2022-11-20T05:39:55;23.30;;;14.03;;
3407;SDS011;1717;50.240;8.406;2022-11-20T05:42:22;27.30;;;15.57;;
3407;SDS011;1717;50.240;8.406;2022-11-20T05:44:57;24.23;;;13.97;;
3407;SDS011;1717;50.240;8.406;2022-11-20T05:47:27;24.90;;;15.60;;
3407;SDS011;1717;50.240;8.406;2022-11-20T05:49:57;22.73;;;13.53;;
3407;SDS011;1717;50.240;8.406;2022-11-20T05:52:27;22.50;;;14.20;;
3407;SDS011;1717;50.240;8.406;2022-11-20T05:54:54;22.30;;;13.90;;
3407;SDS011;1717;50.240;8.406;2022-11-20T05:57:21;19.13;;;12.07;;
3407;SDS011;1717;50.240;8.406;2022-11-20T05:59:48;24.93;;;15.57;;
3407;SDS011;1717;50.240;8.406;2022-11-20T06:02:15;21.17;;;14.93;;
3407;SDS011;1717;50.240;8.406;2022-11-20T06:04:41;20.13;;;12.40;;
3407;SDS011;1717;50.240;8.406;2022-11-20T06:07:08;20.07;;;12.90;;
3407;SDS011;1717;50.240;8.406;2022-11-20T06:09:36;20.90;;;13.90;;
3407;SDS011;1717;50.240;8.406;2022-11-20T06:12:03;19.97;;;12.97;;
3407;SDS011;1717;50.240;8.406;2022-11-20T06:14:31;22.00;;;14.70;;
3407;SDS011;1717;50.240;8.406;2022-11-20T06:16:58;21.27;;;13.60;;
3407;SDS011;1717;50.240;8.406;2022-11-20T06:19:25;22.90;;;13.37;;
3407;SDS011;1717;50.240;8.406;2022-11-20T06:21:52;20.10;;;12.87;;
3407;SDS011;1717;50.240;8.406;2022-11-20T06:24:19;19.33;;;12.63;;
3407;SDS011;1717;50.240;8.406;2022-11-20T06:26:47;22.37;;;13.50;;
3407;SDS011;1717;50.240;8.406;2022-11-20T06:29:14;24.60;;;13.50;;
3407;SDS011;1717;50.240;8.406;2022-11-20T06:31:41;22.23;;;13.70;;
3407;SDS011;1717;50.240;8.406;2022-11-20T06:34:08;22.83;;;12.53;;
3407;SDS011;1717;50.240;8.406;2022-11-20T06:36:35;23.80;;;12.87;;
3407;SDS011;1717;50.240;8.406;2022-11-20T06:39:02;17.17;;;10.37;;
3407;SDS011;1717;50.240;8.406;2022-11-20T06:41:29;19.07;;;11.23;;
3407;SDS011;1717;50.240;8.406;2022-11-20T06:43:57;15.60;;;10.37;;
3407;SDS011;1717;50.240;8.406;2022-11-20T06:46:24;17.87;;;11.53;;
3407;SDS011;1717;50.240;8.406;2022-11-20T06:48:51;18.97;;;12.23;;
3407;SDS011;1717;50.240;8.406;2022-11-20T06:51:18;19.43;;;12.33;;
3407;SDS011;1717;50.240;8.406;2022-11-20T06:53:44;22.93;;;12.20;;
3407;SDS011;1717;50.240;8.406;2022-11-20T06:56:11;17.30;;;10.40;;
3407;SDS011;1717;50.240;8.406;2022-11-20T06:58:38;18.33;;;11.30;;
3407;SDS011;1717;50.240;8.406;2022-11-20T07:01:07;17.03;;;10.27;;
3407;SDS011;1717;50.240;8.406;2022-11-20T07:03:36;15.90;;;9.60;;
3407;SDS011;1717;50.240;8.406;2022-11-20T07:06:03;17.30;;;10.20;;
3407;SDS011;1717;50.240;8.406;2022-11-20T07:08:31;17.73;;;9.73;;
3407;SDS011;1717;50.240;8.406;2022-11-20T07:10:59;14.67;;;9.47;;
3407;SDS011;1717;50.240;8.406;2022-11-20T07:13:26;14.20;;;9.00;;
3407;SDS011;1717;50.240;8.406;2022-11-20T07:15:53;15.37;;;9.70;;
3407;SDS011;1717;50.240;8.406;2022-11-20T07:18:22;14.23;;;9.40;;
3407;SDS011;1717;50.240;8.406;2022-11-20T07:20:49;14.87;;;10.27;;
3407;SDS011;1717;50.240;8.406;2022-11-20T07:23:15;13.80;;;8.93;;
3407;SDS011;1717;50.240;8.406;2022-11-20T07:25:42;14.00;;;9.67;;
3407;SDS011;1717;50.240;8.406;2022-11-20T07:28:09;13.83;;;9.47;;
3407;SDS011;1717;50.240;8.406;2022-11-20T07:30:36;16.13;;;9.90;;
3407;SDS011;1717;50.240;8.406;2022-11-20T07:33:03;18.73;;;12.27;;
3407;SDS011;1717;50.240;8.406;2022-11-20T07:35:32;20.30;;;11.30;;
3407;SDS011;1717;50.240;8.406;2022-11-20T07:37:59;15.00;;;9.20;;
3407;SDS011;1717;50.240;8.406;2022-11-20T07:40:26;20.50;;;10.00;;
3407;SDS011;1717;50.240;8.406;2022-11-20T07:42:53;19.73;;;10.37;;
3407;SDS011;1717;50.240;8.406;2022-11-20T07:45:22;18.93;;;11.77;;
3407;SDS011;1717;50.240;8.406;2022-11-20T07:47:49;20.50;;;12.03;;
3407;SDS011;1717;50.240;8.406;2022-11-20T07:50:17;19.50;;;11.97;;
3407;SDS011;1717;50.240;8.406;2022-11-20T07:52:45;16.60;;;11.50;;
3407;SDS011;1717;50.240;8.406;2022-11-20T07:55:12;16.20;;;11.30;;
3407;SDS011;1717;50.240;8.406;2022-11-20T07:57:39;16.80;;;10.10;;
3407;SDS011;1717;50.240;8.406;2022-11-20T08:00:07;22.37;;;11.70;;
3407;SDS011;1717;50.240;8.406;2022-11-20T08:02:36;17.27;;;11.03;;
3407;SDS011;1717;50.240;8.406;2022-11-20T08:05:04;17.40;;;10.50;;
3407;SDS011;1717;50.240;8.406;2022-11-20T08:07:34;15.93;;;10.00;;
3407;SDS011;1717;50.240;8.406;2022-11-20T08:10:04;15.20;;;10.10;;
3407;SDS011;1717;50.240;8.406;2022-11-20T08:12:31;17.10;;;10.90;;
3407;SDS011;1717;50.240;8.406;2022-11-20T08:15:16;15.67;;;9.77;;
3407;SDS011;1717;50.240;8.406;2022-11-20T08:17:42;14.90;;;9.37;;
3407;SDS011;1717;50.240;8.406;2022-11-20T08:20:09;19.33;;;10.03;;
3407;SDS011;1717;50.240;8.406;2022-11-20T08:22:36;14.23;;;8.50;;
3407;SDS011;1717;50.240;8.406;2022-11-20T08:25:05;13.83;;;9.30;;
3407;SDS011;1717;50.240;8.406;2022-11-20T08:27:32;13.13;;;9.50;;
3407;SDS011;1717;50.240;8.406;2022-11-20T08:29:59;13.00;;;7.73;;
3407;SDS011;1717;50.240;8.406;2022-11-20T08:32:26;14.63;;;8.70;;
3407;SDS011;1717;50.240;8.406;2022-11-20T08:34:52;12.47;;;9.03;;
3407;SDS011;1717;50.240;8.406;2022-11-20T08:37:19;10.30;;;7.20;;
3407;SDS011;1717;50.240;8.406;2022-11-20T08:39:46;10.40;;;6.70;;
3407;SDS011;1717;50.240;8.406;2022-11-20T08:42:14;9.70;;;6.00;;
3407;SDS011;1717;50.240;8.406;2022-11-20T08:44:41;10.10;;;6.40;;
3407;SDS011;1717;50.240;8.406;2022-11-20T08:47:08;9.77;;;5.90;;
3407;SDS011;1717;50.240;8.406;2022-11-20T08:49:35;7.10;;;5.33;;
3407;SDS011;1717;50.240;8.406;2022-11-20T08:52:02;12.63;;;8.60;;
3407;SDS011;1717;50.240;8.406;2022-11-20T08:54:29;14.80;;;8.20;;
3407;SDS011;1717;50.240;8.406;2022-11-20T08:56:55;19.03;;;11.10;;
3407;SDS011;1717;50.240;8.406;2022-11-20T08:59:24;14.53;;;8.73;;
3407;SDS011;1717;50.240;8.406;2022-11-20T09:01:51;16.77;;;11.97;;
3407;SDS011;1717;50.240;8.406;2022-11-20T09:04:17;24.87;;;14.00;;
3407;SDS011;1717;50.240;8.406;2022-11-20T09:06:44;15.07;;;10.10;;
3407;SDS011;1717;50.240;8.406;2022-11-20T09:09:15;11.93;;;6.93;;
3407;SDS011;1717;50.240;8.406;2022-11-20T09:11:42;14.43;;;7.20;;
3407;SDS011;1717;50.240;8.406;2022-11-20T09:14:09;11.00;;;7.80;;
3407;SDS011;1717;50.240;8.406;2022-11-20T09:16:37;13.23;;;8.37;;
3407;SDS011;1717;50.240;8.406;2022-11-20T09:19:04;13.13;;;8.70;;
3407;SDS011;1717;50.240;8.406;2022-11-20T09:21:31;12.00;;;6.63;;
3407;SDS011;1717;50.240;8.406;2022-11-20T09:23:58;11.70;;;6.67;;
3407;SDS011;1717;50.240;8.406;2022-11-20T09:26:25;9.83;;;5.77;;
3407;SDS011;1717;50.240;8.406;2022-11-20T09:28:54;11.20;;;9.37;;
3407;SDS011;1717;50.240;8.406;2022-11-20T09:31:22;14.43;;;10.47;;
3407;SDS011;1717;50.240;8.406;2022-11-20T09:33:52;13.00;;;9.87;;
3407;SDS011;1717;50.240;8.406;2022-11-20T09:36:19;15.07;;;10.83;;
3407;SDS011;1717;50.240;8.406;2022-11-20T09:38:46;12.83;;;9.70;;
3407;SDS011;1717;50.240;8.406;2022-11-20T09:41:19;11.80;;;7.90;;
3407;SDS011;1717;50.240;8.406;2022-11-20T09:44:01;9.30;;;5.80;;
3407;SDS011;1717;50.240;8.406;2022-11-20T09:46:36;9.53;;;5.63;;
3407;SDS011;1717;50.240;8.406;2022-11-20T09:49:18;10.07;;;6.53;;
3407;SDS011;1717;50.240;8.406;2022-11-20T09:51:52;18.97;;;7.73;;
3407;SDS011;1717;50.240;8.406;2022-11-20T09:54:26;10.60;;;6.27;;
3407;SDS011;1717;50.240;8.406;2022-11-20T09:56:58;9.70;;;6.50;;
3407;SDS011;1717;50.240;8.406;2022-11-20T09:59:29;15.30;;;12.90;;
3407;SDS011;1717;50.240;8.406;2022-11-20T10:02:01;10.53;;;8.87;;
3407;SDS011;1717;50.240;8.406;2022-11-20T10:04:39;25.23;;;15.57;;
3407;SDS011;1717;50.240;8.406;2022-11-20T10:07:15;17.10;;;10.80;;
3407;SDS011;1717;50.240;8.406;2022-11-20T10:09:48;14.97;;;8.73;;
3407;SDS011;1717;50.240;8.406;2022-11-20T10:12:19;8.17;;;6.33;;
3407;SDS011;1717;50.240;8.406;2022-11-20T10:14:54;11.70;;;6.20;;
3407;SDS011;1717;50.240;8.406;2022-11-20T10:17:48;10.33;;;6.20;;
3407;SDS011;1717;50.240;8.406;2022-11-20T10:20:30;10.73;;;6.97;;
3407;SDS011;1717;50.240;8.406;2022-11-20T10:23:12;11.00;;;6.40;;
3407;SDS011;1717;50.240;8.406;2022-11-20T10:25:54;13.53;;;9.47;;
3407;SDS011;1717;50.240;8.406;2022-11-20T10:28:34;11.37;;;7.90;;
3407;SDS011;1717;50.240;8.406;2022-11-20T10:31:14;11.80;;;7.20;;
3407;SDS011;1717;50.240;8.406;2022-11-20T10:33:49;11.93;;;7.70;;
3407;SDS011;1717;50.240;8.406;2022-11-20T10:36:21;9.83;;;7.13;;
3407;SDS011;1717;50.240;8.406;2022-11-20T10:38:51;14.40;;;8.27;;
3407;SDS011;1717;50.240;8.406;2022-11-20T10:41:25;10.73;;;6.30;;
3407;SDS011;1717;50.240;8.406;2022-11-20T10:44:01;12.40;;;8.10;;
3407;SDS011;1717;50.240;8.406;2022-11-20T10:46:34;12.20;;;8.03;;
3407;SDS011;1717;50.240;8.406;2022-11-20T10:49:11;11.33;;;6.77;;
3407;SDS011;1717;50.240;8.406;2022-11-20T10:51:43;10.10;;;6.67;;
3407;SDS011;1717;50.240;8.406;2022-11-20T10:54:25;11.70;;;7.03;;
3407;SDS011;1717;50.240;8.406;2022-11-20T10:57:03;13.53;;;7.57;;
3407;SDS011;1717;50.240;8.406;2022-11-20T11:02:34;13.80;;;7.97;;
3407;SDS011;1717;50.240;8.406;2022-11-20T11:05:09;12.53;;;7.60;;
3407;SDS011;1717;50.240;8.406;2022-11-20T11:07:43;9.90;;;6.10;;
3407;SDS011;1717;50.240;8.406;2022-11-20T11:10:16;8.50;;;6.53;;
3407;SDS011;1717;50.240;8.406;2022-11-20T11:12:45;9.20;;;5.63;;
3407;SDS011;1717;50.240;8.406;2022-11-20T11:15:13;10.60;;;7.20;;
3407;SDS011;1717;50.240;8.406;2022-11-20T11:17:50;11.17;;;7.93;;
3407;SDS011;1717;50.240;8.406;2022-11-20T11:20:17;14.83;;;8.43;;
3407;SDS011;1717;50.240;8.406;2022-11-20T11:22:47;14.37;;;8.73;;
3407;SDS011;1717;50.240;8.406;2022-11-20T11:25:23;14.73;;;10.50;;
3407;SDS011;1717;50.240;8.406;2022-11-20T11:27:53;15.63;;;10.07;;
3407;SDS011;1717;50.240;8.406;2022-11-20T11:30:22;22.47;;;13.00;;
3407;SDS011;1717;50.240;8.406;2022-11-20T11:32:49;13.63;;;10.07;;
3407;SDS011;1717;50.240;8.406;2022-11-20T11:35:23;16.73;;;11.60;;
3407;SDS011;1717;50.240;8.406;2022-11-20T11:37:53;17.90;;;11.97;;
3407;SDS011;1717;50.240;8.406;2022-11-20T11:40:21;16.27;;;10.93;;
3407;SDS011;1717;50.240;8.406;2022-11-20T11:42:54;17.37;;;11.07;;
3407;SDS011;1717;50.240;8.406;2022-11-20T11:45:24;18.40;;;10.70;;
3407;SDS011;1717;50.240;8.406;2022-11-20T11:47:51;17.37;;;11.23;;
3407;SDS011;1717;50.240;8.406;2022-11-20T11:50:21;19.40;;;10.60;;
3407;SDS011;1717;50.240;8.406;2022-11-20T11:52:56;13.80;;;9.43;;
3407;SDS011;1717;50.240;8.406;2022-11-20T11:55:32;13.40;;;9.30;;
3407;SDS011;1717;50.240;8.406;2022-11-20T11:58:11;14.00;;;9.80;;
3407;SDS011;1717;50.240;8.406;2022-11-20T12:00:49;12.90;;;9.20;;
3407;SDS011;1717;50.240;8.406;2022-11-20T12:03:21;12.17;;;8.83;;
3407;SDS011;1717;50.240;8.406;2022-11-20T12:05:55;13.60;;;9.07;;
3407;SDS011;1717;50.240;8.406;2022-11-20T12:08:27;13.90;;;8.50;;
3407;SDS011;1717;50.240;8.406;2022-11-20T12:11:00;15.47;;;10.00;;
3407;SDS011;1717;50.240;8.406;2022-11-20T12:13:40;13.73;;;9.47;;
3407;SDS011;1717;50.240;8.406;2022-11-20T12:16:14;11.80;;;9.00;;
3407;SDS011;1717;50.240;8.406;2022-11-20T12:18:43;12.30;;;8.67;;
3407;SDS011;1717;50.240;8.406;2022-11-20T12:21:18;11.37;;;8.60;;
3407;SDS011;1717;50.240;8.406;2022-11-20T12:26:41;9.70;;;7.57;;
3407;SDS011;1717;50.240;8.406;2022-11-20T12:29:17;12.27;;;8.97;;
3407;SDS011;1717;50.240;8.406;2022-11-20T12:31:55;11.97;;;8.33;;
3407;SDS011;1717;50.240;8.406;2022-11-20T12:34:34;10.47;;;7.87;;
3407;SDS011;1717;50.240;8.406;2022-11-20T12:37:16;12.90;;;8.77;;
3407;SDS011;1717;50.240;8.406;2022-11-20T12:39:55;11.03;;;7.37;;
3407;SDS011;1717;50.240;8.406;2022-11-20T12:42:31;12.00;;;8.20;;
3407;SDS011;1717;50.240;8.406;2022-11-20T12:45:32;11.03;;;7.57;;
3407;SDS011;1717;50.240;8.406;2022-11-20T12:48:28;8.30;;;7.40;;
3407;SDS011;1717;50.240;8.406;2022-11-20T12:51:21;11.60;;;8.17;;
3407;SDS011;1717;50.240;8.406;2022-11-20T12:54:11;9.93;;;8.13;;
3407;SDS011;1717;50.240;8.406;2022-11-20T12:56:56;9.63;;;7.67;;
3407;SDS011;1717;50.240;8.406;2022-11-20T12:59:33;11.47;;;8.30;;
3407;SDS011;1717;50.240;8.406;2022-11-20T13:02:16;10.33;;;7.77;;
3407;SDS011;1717;50.240;8.406;2022-11-20T13:07:47;10.87;;;9.20;;
3407;SDS011;1717;50.240;8.406;2022-11-20T13:10:20;10.43;;;9.20;;
3407;SDS011;1717;50.240;8.406;2022-11-20T13:12:54;11.00;;;8.60;;
3407;SDS011;1717;50.240;8.406;2022-11-20T13:15:31;12.37;;;9.20;;
3407;SDS011;1717;50.240;8.406;2022-11-20T13:18:04;11.17;;;8.83;;
3407;SDS011;1717;50.240;8.406;2022-11-20T13:20:34;10.43;;;8.07;;
3407;SDS011;1717;50.240;8.406;2022-11-20T13:23:02;10.33;;;8.47;;
3407;SDS011;1717;50.240;8.406;2022-11-20T13:25:29;10.80;;;7.63;;
3407;SDS011;1717;50.240;8.406;2022-11-20T13:27:59;10.20;;;8.33;;
3407;SDS011;1717;50.240;8.406;2022-11-20T13:30:29;11.10;;;8.30;;
3407;SDS011;1717;50.240;8.406;2022-11-20T13:32:58;14.90;;;9.97;;
3407;SDS011;1717;50.240;8.406;2022-11-20T13:35:32;12.70;;;9.87;;
3407;SDS011;1717;50.240;8.406;2022-11-20T13:38:05;17.50;;;10.90;;
3407;SDS011;1717;50.240;8.406;2022-11-20T13:40:33;17.73;;;11.53;;
3407;SDS011;1717;50.240;8.406;2022-11-20T13:43:17;17.67;;;11.83;;
3407;SDS011;1717;50.240;8.406;2022-11-20T13:45:54;17.67;;;11.67;;
3407;SDS011;1717;50.240;8.406;2022-11-20T13:48:24;16.93;;;12.03;;
3407;SDS011;1717;50.240;8.406;2022-11-20T13:51:04;21.87;;;12.23;;
3407;SDS011;1717;50.240;8.406;2022-11-20T13:53:44;19.80;;;12.27;;
3407;SDS011;1717;50.240;8.406;2022-11-20T13:56:24;18.47;;;12.83;;
3407;SDS011;1717;50.240;8.406;2022-11-20T13:59:05;19.20;;;12.07;;
3407;SDS011;1717;50.240;8.406;2022-11-20T14:01:39;18.73;;;11.97;;
3407;SDS011;1717;50.240;8.406;2022-11-20T14:04:08;15.87;;;11.00;;
3407;SDS011;1717;50.240;8.406;2022-11-20T14:06:41;15.70;;;11.50;;
3407;SDS011;1717;50.240;8.406;2022-11-20T14:09:10;17.40;;;11.37;;
3407;SDS011;1717;50.240;8.406;2022-11-20T14:11:45;19.03;;;12.87;;
3407;SDS011;1717;50.240;8.406;2022-11-20T14:14:15;18.40;;;12.17;;
3407;SDS011;1717;50.240;8.406;2022-11-20T14:16:44;16.53;;;11.53;;
3407;SDS011;1717;50.240;8.406;2022-11-20T14:19:19;19.97;;;13.87;;
3407;SDS011;1717;50.240;8.406;2022-11-20T14:21:52;21.63;;;12.30;;
3407;SDS011;1717;50.240;8.406;2022-11-20T14:24:21;14.90;;;10.63;;
3407;SDS011;1717;50.240;8.406;2022-11-20T14:26:49;22.47;;;13.73;;
3407;SDS011;1717;50.240;8.406;2022-11-20T14:29:19;19.90;;;13.30;;
3407;SDS011;1717;50.240;8.406;2022-11-20T14:31:48;19.67;;;12.80;;
3407;SDS011;1717;50.240;8.406;2022-11-20T14:34:18;21.10;;;13.17;;
3407;SDS011;1717;50.240;8.406;2022-11-20T14:36:48;19.40;;;13.47;;
3407;SDS011;1717;50.240;8.406;2022-11-20T14:39:19;22.77;;;15.87;;
3407;SDS011;1717;50.240;8.406;2022-11-20T14:41:49;23.97;;;14.87;;
3407;SDS011;1717;50.240;8.406;2022-11-20T14:44:16;22.70;;;15.67;;
3407;SDS011;1717;50.240;8.406;2022-11-20T14:46:53;24.00;;;14.63;;
3407;SDS011;1717;50.240;8.406;2022-11-20T14:49:21;19.93;;;14.87;;
3407;SDS011;1717;50.240;8.406;2022-11-20T14:51:58;21.90;;;14.50;;
3407;SDS011;1717;50.240;8.406;2022-11-20T14:54:25;23.73;;;14.50;;
3407;SDS011;1717;50.240;8.406;2022-11-20T14:56:53;19.43;;;13.20;;
3407;SDS011;1717;50.240;8.406;2022-11-20T14:59:23;19.47;;;12.60;;
3407;SDS011;1717;50.240;8.406;2022-11-20T15:01:54;20.10;;;13.37;;
3407;SDS011;1717;50.240;8.406;2022-11-20T15:04:22;20.87;;;12.77;;
3407;SDS011;1717;50.240;8.406;2022-11-20T15:06:50;19.37;;;13.00;;
3407;SDS011;1717;50.240;8.406;2022-11-20T15:09:17;21.43;;;13.53;;
3407;SDS011;1717;50.240;8.406;2022-11-20T15:11:51;21.33;;;12.77;;
3407;SDS011;1717;50.240;8.406;2022-11-20T15:14:20;21.60;;;13.10;;
3407;SDS011;1717;50.240;8.406;2022-11-20T15:16:48;20.20;;;13.67;;
3407;SDS011;1717;50.240;8.406;2022-11-20T15:19:17;18.23;;;14.43;;
3407;SDS011;1717;50.240;8.406;2022-11-20T15:21:45;18.27;;;12.50;;